Time;durP1;ratioP1;P1;durP2;ratioP2;P2;SDS_P1;SDS_P2;PMS_P1;PMS_P2;Temp;Humidity;BMP_temperature;BMP_pressure;BME280_temperature;BME280_humidity;BME280_pressure;Samples;Min_cycle;Max_cycle;Signal;HPM_P1;HPM_P2
2023/03/04 00:01:28;;;;;;;;;34.25;26.25;;;;;6.27;100.00;102378.25;5050523;28;45670;-76
2023/03/04 00:03:54;;;;;;;;;34.25;25.50;;;;;6.24;100.00;102374.59;5031317;28;46064;-81
2023/03/04 00:06:19;;;;;;;;;38.50;27.00;;;;;6.20;100.00;102381.38;5035978;28;60983;-83
2023/03/04 00:08:44;;;;;;;;;43.00;31.25;;;;;6.18;99.62;102377.78;5031640;28;49793;-77
2023/03/04 00:11:10;;;;;;;;;38.75;28.75;;;;;6.16;99.42;102383.75;5034027;28;58289;-82
2023/03/04 00:13:35;;;;;;;;;46.75;29.25;;;;;6.12;100.00;102384.41;5039316;28;45742;-76
2023/03/04 00:16:00;;;;;;;;;39.00;30.00;;;;;6.12;100.00;102390.56;5044171;28;46516;-82
2023/03/04 00:18:26;;;;;;;;;39.50;30.50;;;;;6.10;100.00;102381.72;5027431;28;57958;-83
2023/03/04 00:20:51;;;;;;;;;36.25;26.00;;;;;6.08;100.00;102393.84;5030258;28;59584;-80
2023/03/04 00:23:16;;;;;;;;;37.25;30.00;;;;;6.06;100.00;102392.84;5041955;28;63238;-83
2023/03/04 00:25:42;;;;;;;;;35.25;26.75;;;;;6.02;100.00;102394.41;5034385;28;45553;-85
2023/03/04 00:28:07;;;;;;;;;43.50;31.75;;;;;5.97;99.98;102393.28;5032961;28;45580;-78
2023/03/04 00:30:32;;;;;;;;;39.00;30.00;;;;;5.98;100.00;102400.31;5028206;28;54390;-75
2023/03/04 00:32:58;;;;;;;;;41.00;32.50;;;;;5.95;99.45;102393.97;5050310;28;62057;-76
2023/03/04 00:35:23;;;;;;;;;32.50;28.75;;;;;5.92;99.28;102399.97;5049530;28;45824;-81
2023/03/04 00:37:48;;;;;;;;;45.00;32.00;;;;;5.89;99.40;102391.91;5028597;28;58915;-80
2023/03/04 00:40:14;;;;;;;;;50.00;35.50;;;;;5.86;99.58;102388.19;5028047;28;58294;-77
2023/03/04 00:42:39;;;;;;;;;43.00;35.25;;;;;5.86;100.00;102394.38;5020354;28;47589;-77
2023/03/04 00:45:05;;;;;;;;;44.75;34.00;;;;;5.86;100.00;102396.06;5038184;28;45561;-76
2023/03/04 00:47:30;;;;;;;;;43.25;31.75;;;;;5.86;100.00;102393.44;5030360;28;45712;-80
2023/03/04 00:49:56;;;;;;;;;44.50;36.25;;;;;5.85;100.00;102394.25;5029815;28;46984;-80
2023/03/04 00:52:21;;;;;;;;;47.00;34.00;;;;;5.83;100.00;102391.56;5046364;28;66549;-83
2023/03/04 00:54:46;;;;;;;;;43.00;37.25;;;;;5.87;100.00;102403.13;5028162;28;62547;-82
2023/03/04 00:57:12;;;;;;;;;47.75;31.00;;;;;5.86;100.00;102409.16;5010875;28;60308;-77
2023/03/04 00:59:37;;;;;;;;;41.75;35.25;;;;;5.84;100.00;102398.59;5029381;28;59036;-79
2023/03/04 01:02:02;;;;;;;;;58.50;39.75;;;;;5.83;100.00;102402.03;5010801;28;48765;-83
2023/03/04 01:04:28;;;;;;;;;43.75;34.00;;;;;5.86;100.00;102410.09;5043262;28;52073;-76
2023/03/04 01:06:53;;;;;;;;;38.50;29.50;;;;;5.86;100.00;102409.16;5020843;28;45386;-77
2023/03/04 01:09:18;;;;;;;;;45.75;34.75;;;;;5.84;100.00;102402.94;5045646;28;46320;-82
2023/03/04 01:11:44;;;;;;;;;45.50;31.25;;;;;5.83;100.00;102399.44;5032618;28;68719;-76
2023/03/04 01:14:09;;;;;;;;;37.75;31.50;;;;;5.82;100.00;102392.38;5027114;28;63977;-84
2023/03/04 01:16:35;;;;;;;;;32.75;31.75;;;;;5.81;100.00;102402.78;5029834;28;46105;-77
2023/03/04 01:19:00;;;;;;;;;36.75;33.25;;;;;5.78;100.00;102390.41;5048010;28;45551;-79
2023/03/04 01:21:25;;;;;;;;;44.00;30.00;;;;;5.81;100.00;102400.19;5031430;28;45508;-81
2023/03/04 01:23:51;;;;;;;;;44.25;32.50;;;;;5.77;100.00;102389.50;5046260;28;46237;-77
2023/03/04 01:26:16;;;;;;;;;35.25;27.00;;;;;5.79;100.00;102398.34;5029801;28;59113;-76
2023/03/04 01:28:41;;;;;;;;;39.25;28.25;;;;;5.77;100.00;102399.09;5047982;28;56271;-82
2023/03/04 01:31:07;;;;;;;;;37.00;25.75;;;;;5.75;100.00;102396.41;5010666;28;68465;-77
2023/03/04 01:33:32;;;;;;;;;34.25;25.50;;;;;5.75;100.00;102392.84;5037244;28;45463;-76
2023/03/04 01:35:58;;;;;;;;;41.50;30.50;;;;;5.74;100.00;102391.03;5018584;28;45489;-76
2023/03/04 01:38:23;;;;;;;;;37.25;30.50;;;;;5.73;100.00;102382.28;5022500;28;53291;-81
2023/03/04 01:40:50;;;;;;;;;38.00;31.50;;;;;5.72;100.00;102390.97;5032810;28;68772;-82
2023/03/04 01:43:21;;;;;;;;;36.00;30.50;;;;;5.69;100.00;102395.13;5031419;28;45570;-77
2023/03/04 01:45:48;;;;;;;;;35.50;27.25;;;;;5.69;100.00;102392.50;5030162;28;45619;-79
2023/03/04 01:48:16;;;;;;;;;37.50;29.50;;;;;5.66;100.00;102377.53;5028393;28;45608;-80
2023/03/04 01:50:41;;;;;;;;;30.25;24.00;;;;;5.66;100.00;102390.63;5046785;28;46990;-82
2023/03/04 01:53:17;;;;;;;;;34.00;27.00;;;;;5.70;100.00;102381.19;5028071;28;46115;-77
2023/03/04 01:55:42;;;;;;;;;37.25;29.00;;;;;5.72;100.00;102377.88;5030471;28;45505;-78
2023/03/04 01:58:09;;;;;;;;;40.50;30.50;;;;;5.73;100.00;102373.53;5014605;28;57835;-77
2023/03/04 02:00:36;;;;;;;;;40.25;33.50;;;;;5.71;100.00;102370.81;5030656;28;46426;-79
2023/03/04 02:03:06;;;;;;;;;39.50;29.75;;;;;5.65;100.00;102367.88;5053846;28;45462;-77
2023/03/04 02:05:32;;;;;;;;;34.00;28.25;;;;;5.60;100.00;102364.09;5043466;28;45560;-76
2023/03/04 02:07:58;;;;;;;;;37.00;25.50;;;;;5.62;100.00;102375.56;5039430;28;45513;-79
2023/03/04 02:10:24;;;;;;;;;39.50;26.25;;;;;5.56;100.00;102362.13;5028962;28;46203;-76
2023/03/04 02:12:50;;;;;;;;;27.50;26.25;;;;;5.58;100.00;102380.53;5030007;28;45482;-83
2023/03/04 02:15:15;;;;;;;;;45.25;29.00;;;;;5.57;100.00;102384.88;5029354;28;45495;-80
2023/03/04 02:17:41;;;;;;;;;42.25;30.25;;;;;5.53;100.00;102378.53;5028261;28;45482;-76
2023/03/04 02:20:06;;;;;;;;;42.00;31.50;;;;;5.53;100.00;102377.66;5035187;28;48787;-80
2023/03/04 02:22:37;;;;;;;;;39.25;30.75;;;;;5.52;100.00;102371.50;5049685;28;45513;-76
2023/03/04 02:25:08;;;;;;;;;36.00;29.75;;;;;5.53;100.00;102386.41;5039356;28;46929;-79
2023/03/04 02:27:33;;;;;;;;;39.50;28.50;;;;;5.52;100.00;102373.22;5029976;28;45505;-81
2023/03/04 02:29:58;;;;;;;;;37.25;32.75;;;;;5.48;100.00;102380.00;5037253;28;67459;-78
2023/03/04 02:32:24;;;;;;;;;32.25;27.75;;;;;5.48;100.00;102381.72;5032546;28;65935;-77
2023/03/04 02:34:49;;;;;;;;;34.75;28.25;;;;;5.47;100.00;102375.59;5038266;28;45723;-77
2023/03/04 02:37:16;;;;;;;;;42.75;34.25;;;;;5.47;100.00;102378.19;5036485;28;55582;-77
2023/03/04 02:39:44;;;;;;;;;38.50;31.25;;;;;5.45;100.00;102371.09;5032327;28;45657;-76
2023/03/04 02:42:10;;;;;;;;;39.00;33.50;;;;;5.39;100.00;102366.41;5034192;28;45841;-80
2023/03/04 02:44:38;;;;;;;;;44.75;37.75;;;;;5.42;100.00;102368.28;5028457;28;46774;-81
2023/03/04 02:47:06;;;;;;;;;38.75;34.75;;;;;5.41;100.00;102369.09;5018199;28;45675;-76
2023/03/04 02:49:31;;;;;;;;;43.25;31.50;;;;;5.36;100.00;102360.09;5030748;28;46782;-77
2023/03/04 02:52:06;;;;;;;;;41.00;28.00;;;;;5.37;100.00;102370.63;5030072;28;45500;-76
2023/03/04 02:54:31;;;;;;;;;30.75;25.00;;;;;5.33;100.00;102363.44;5034535;28;45578;-80
2023/03/04 02:56:59;;;;;;;;;39.25;33.00;;;;;5.30;100.00;102355.41;5038567;28;46110;-78
2023/03/04 02:59:25;;;;;;;;;42.25;27.75;;;;;5.26;100.00;102348.19;5028698;28;46364;-76
2023/03/04 03:01:50;;;;;;;;;48.00;34.50;;;;;5.29;100.00;102352.72;5027411;28;63759;-79
2023/03/04 03:04:17;;;;;;;;;41.50;34.00;;;;;5.26;100.00;102346.47;5045740;28;45901;-77
2023/03/04 03:06:42;;;;;;;;;38.75;29.25;;;;;5.23;100.00;102345.41;5022842;28;45571;-77
2023/03/04 03:09:07;;;;;;;;;42.75;31.75;;;;;5.19;100.00;102352.19;5030069;28;70251;-77
2023/03/04 03:11:33;;;;;;;;;45.25;31.50;;;;;5.18;100.00;102358.22;5048495;28;45452;-80
2023/03/04 03:13:58;;;;;;;;;50.25;36.50;;;;;5.15;100.00;102344.94;5049231;28;47878;-81
2023/03/04 03:16:24;;;;;;;;;42.75;38.00;;;;;5.15;100.00;102336.19;5041948;28;61897;-75
2023/03/04 03:18:49;;;;;;;;;50.50;39.00;;;;;5.18;100.00;102344.25;5037304;28;45844;-79
2023/03/04 03:21:14;;;;;;;;;45.75;35.25;;;;;5.16;100.00;102343.22;5047769;28;64466;-76
2023/03/04 03:23:40;;;;;;;;;33.50;32.50;;;;;5.12;100.00;102336.03;5030406;28;50360;-76
2023/03/04 03:26:05;;;;;;;;;37.25;31.75;;;;;5.08;100.00;102334.94;5030957;28;46801;-76
2023/03/04 03:28:31;;;;;;;;;42.25;27.50;;;;;5.01;100.00;102338.03;5033559;28;47009;-76
2023/03/04 03:30:56;;;;;;;;;39.25;31.00;;;;;5.00;100.00;102342.34;5030828;28;46247;-77
2023/03/04 03:33:21;;;;;;;;;43.75;34.25;;;;;4.95;100.00;102330.75;5037129;28;51872;-79
2023/03/04 03:35:47;;;;;;;;;41.00;35.75;;;;;4.98;100.00;102348.31;5053795;28;45560;-77
2023/03/04 03:38:12;;;;;;;;;54.25;34.25;;;;;4.94;100.00;102333.25;5042965;28;46700;-82
2023/03/04 03:40:37;;;;;;;;;56.25;35.00;;;;;4.96;100.00;102340.38;5038817;28;45848;-81
2023/03/04 03:43:03;;;;;;;;;37.50;30.25;;;;;4.92;100.00;102342.75;5040263;28;59740;-83
2023/03/04 03:45:28;;;;;;;;;54.25;37.25;;;;;4.89;100.00;102337.31;5048293;28;57333;-77
2023/03/04 03:47:54;;;;;;;;;38.25;32.75;;;;;4.87;100.00;102349.41;5036274;28;48544;-76
2023/03/04 03:50:19;;;;;;;;;38.00;30.00;;;;;4.84;100.00;102347.50;5031228;28;45493;-76
2023/03/04 03:52:44;;;;;;;;;48.00;36.50;;;;;4.82;100.00;102361.34;5030747;28;46136;-80
2023/03/04 03:55:10;;;;;;;;;27.75;22.25;;;;;4.80;100.00;102353.41;5030103;28;57030;-76
2023/03/04 03:57:35;;;;;;;;;32.75;30.00;;;;;4.79;100.00;102354.19;5027811;28;66647;-76
2023/03/04 04:00:01;;;;;;;;;46.00;33.50;;;;;4.80;100.00;102361.25;5033839;28;60977;-77
2023/03/04 04:02:26;;;;;;;;;46.50;34.00;;;;;4.81;100.00;102356.91;5035169;28;45661;-82
2023/03/04 04:04:51;;;;;;;;;37.75;34.00;;;;;4.81;100.00;102362.16;5018882;28;59161;-76
2023/03/04 04:07:17;;;;;;;;;42.50;33.50;;;;;4.83;100.00;102368.38;5047994;28;66570;-77
2023/03/04 04:09:43;;;;;;;;;35.25;28.00;;;;;4.82;100.00;102370.06;5042864;28;45497;-78
2023/03/04 04:12:09;;;;;;;;;45.00;32.75;;;;;4.83;100.00;102365.75;5043964;28;45464;-81
2023/03/04 04:14:35;;;;;;;;;45.75;33.75;;;;;4.84;100.00;102365.81;5034436;28;45729;-78
2023/03/04 04:17:00;;;;;;;;;49.25;34.25;;;;;4.84;100.00;102364.94;5043155;28;56720;-79
2023/03/04 04:19:26;;;;;;;;;44.00;33.00;;;;;4.82;100.00;102364.84;5050795;28;56576;-76
2023/03/04 04:21:51;;;;;;;;;42.75;34.50;;;;;4.81;100.00;102370.00;5028630;28;45602;-81
2023/03/04 04:24:16;;;;;;;;;36.25;29.25;;;;;4.78;100.00;102364.56;5046866;28;45372;-76
2023/03/04 04:26:42;;;;;;;;;38.75;24.25;;;;;4.80;100.00;102366.47;5029080;28;46742;-81
2023/03/04 04:29:08;;;;;;;;;42.75;30.25;;;;;4.79;100.00;102367.28;5028544;28;45503;-75
2023/03/04 04:31:33;;;;;;;;;37.00;29.00;;;;;4.81;100.00;102372.63;5034417;28;45522;-76
2023/03/04 04:33:59;;;;;;;;;45.25;39.25;;;;;4.79;100.00;102369.00;5030736;28;46328;-77
2023/03/04 04:36:25;;;;;;;;;42.75;33.25;;;;;4.77;100.00;102366.28;5039822;28;45882;-77
2023/03/04 04:38:51;;;;;;;;;48.75;34.00;;;;;4.74;100.00;102366.13;5025974;28;45561;-79
2023/03/04 04:41:22;;;;;;;;;50.00;41.00;;;;;4.70;100.00;102371.97;5040216;28;45577;-77
2023/03/04 04:43:47;;;;;;;;;38.00;29.50;;;;;4.66;100.00;102377.84;5020455;28;45526;-81
2023/03/04 04:46:14;;;;;;;;;38.00;26.50;;;;;4.63;100.00;102370.69;5025795;28;46522;-76
2023/03/04 04:48:39;;;;;;;;;45.75;33.75;;;;;4.64;100.00;102383.00;5026034;28;45560;-80
2023/03/04 04:51:04;;;;;;;;;44.75;33.25;;;;;4.59;100.00;102376.56;5017395;28;58276;-76
2023/03/04 04:53:30;;;;;;;;;35.00;29.50;;;;;4.54;100.00;102385.84;5029761;28;45715;-78
2023/03/04 04:55:55;;;;;;;;;42.75;33.50;;;;;4.49;100.00;102392.53;5032995;28;69128;-77
2023/03/04 04:58:20;;;;;;;;;49.00;36.25;;;;;4.47;100.00;102396.72;5053193;28;51604;-76
2023/03/04 05:00:46;;;;;;;;;36.25;30.00;;;;;4.41;100.00;102392.03;5029072;28;57963;-78
2023/03/04 05:03:11;;;;;;;;;45.00;32.25;;;;;4.36;100.00;102395.19;5030025;28;63889;-77
2023/03/04 05:05:36;;;;;;;;;50.00;36.00;;;;;4.30;100.00;102392.19;5029379;28;49700;-75
2023/03/04 05:08:02;;;;;;;;;51.25;36.00;;;;;4.26;100.00;102403.28;5028936;28;63516;-80
2023/03/04 05:10:27;;;;;;;;;45.75;32.50;;;;;4.27;100.00;102398.16;5047814;28;45513;-78
2023/03/04 05:12:53;;;;;;;;;41.00;27.50;;;;;4.26;100.00;102400.66;5048487;28;62447;-77
2023/03/04 05:15:18;;;;;;;;;45.00;34.75;;;;;4.25;100.00;102412.81;5025314;28;46789;-77
2023/03/04 05:17:43;;;;;;;;;36.75;32.50;;;;;4.22;100.00;102412.66;5030205;28;45531;-81
2023/03/04 05:20:09;;;;;;;;;37.50;31.00;;;;;4.22;100.00;102415.28;5043721;28;46499;-77
2023/03/04 05:22:36;;;;;;;;;40.25;34.75;;;;;4.22;100.00;102412.66;5031147;28;45370;-76
2023/03/04 05:25:02;;;;;;;;;52.25;32.00;;;;;4.22;100.00;102414.38;5024008;28;65276;-76
2023/03/04 05:27:27;;;;;;;;;40.25;33.25;;;;;4.18;100.00;102408.03;5037551;28;45815;-78
2023/03/04 05:29:54;;;;;;;;;48.00;33.00;;;;;4.17;100.00;102409.75;5014541;28;45709;-79
2023/03/04 05:32:19;;;;;;;;;36.50;33.00;;;;;4.17;100.00;102408.84;5031110;28;45564;-76
2023/03/04 05:34:45;;;;;;;;;36.00;31.50;;;;;4.17;100.00;102411.47;5030656;28;46552;-77
2023/03/04 05:37:10;;;;;;;;;45.00;34.75;;;;;4.15;100.00;102406.13;5050118;28;45486;-79
2023/03/04 05:39:35;;;;;;;;;44.75;36.75;;;;;4.16;100.00;102409.66;5009896;28;59284;-80
2023/03/04 05:42:01;;;;;;;;;43.50;29.00;;;;;4.10;100.00;102404.97;5037663;28;52978;-76
2023/03/04 05:44:26;;;;;;;;;39.25;31.00;;;;;4.09;100.00;102408.34;5057110;28;67754;-81
2023/03/04 05:46:52;;;;;;;;;30.25;28.25;;;;;4.07;100.00;102409.09;5043564;28;45473;-76
2023/03/04 05:49:17;;;;;;;;;42.25;32.25;;;;;4.01;100.00;102407.00;5023188;28;45971;-77
2023/03/04 05:51:42;;;;;;;;;31.50;25.25;;;;;3.97;100.00;102399.75;5051352;28;45552;-82
2023/03/04 05:54:08;;;;;;;;;43.50;30.50;;;;;3.97;100.00;102415.44;5014949;28;47688;-79
2023/03/04 05:56:33;;;;;;;;;40.25;34.25;;;;;3.98;100.00;102414.63;5051292;28;67475;-76
2023/03/04 05:58:59;;;;;;;;;45.75;40.50;;;;;3.99;100.00;102410.31;5038145;28;46059;-81
2023/03/04 06:01:24;;;;;;;;;41.00;31.75;;;;;3.99;100.00;102408.59;5032416;28;45612;-81
2023/03/04 06:03:49;;;;;;;;;35.75;26.00;;;;;3.99;100.00;102408.59;5031787;28;46308;-76
2023/03/04 06:06:15;;;;;;;;;32.75;28.50;;;;;3.98;100.00;102408.50;5051106;28;63440;-80
2023/03/04 06:08:40;;;;;;;;;42.75;28.75;;;;;3.98;100.00;102412.00;5029733;28;45434;-76
2023/03/04 06:11:06;;;;;;;;;45.50;32.00;;;;;4.00;100.00;102415.66;5032611;28;47408;-77
2023/03/04 06:13:32;;;;;;;;;40.50;28.50;;;;;4.03;100.00;102426.28;5023834;28;47528;-76
2023/03/04 06:15:58;;;;;;;;;44.00;37.25;;;;;4.11;100.00;102419.84;5021334;22;46065;-81
2023/03/04 06:18:25;;;;;;;;;47.25;31.00;;;;;4.16;100.00;102421.03;5041414;28;45395;-80
2023/03/04 06:20:54;;;;;;;;;35.50;30.50;;;;;4.17;100.00;102419.31;5032757;28;45589;-82
2023/03/04 06:23:20;;;;;;;;;28.50;24.50;;;;;4.17;100.00;102428.06;5033186;28;45738;-76
2023/03/04 06:25:45;;;;;;;;;34.25;27.75;;;;;4.13;100.00;102425.16;5037666;28;62746;-80
2023/03/04 06:28:10;;;;;;;;;48.50;36.75;;;;;4.11;100.00;102429.38;5062614;28;60773;-76
2023/03/04 06:30:36;;;;;;;;;40.50;28.75;;;;;4.09;100.00;102437.09;5036721;28;55718;-76
2023/03/04 06:33:01;;;;;;;;;40.25;32.00;;;;;4.07;100.00;102433.50;5051019;28;62777;-76
2023/03/04 06:35:26;;;;;;;;;39.00;26.75;;;;;4.07;100.00;102432.59;5036819;28;63759;-81
2023/03/04 06:37:52;;;;;;;;;45.25;29.50;;;;;4.04;100.00;102430.69;5030483;28;64565;-76
2023/03/04 06:40:17;;;;;;;;;44.00;33.50;;;;;4.03;100.00;102439.34;5049245;28;54240;-84
2023/03/04 06:42:42;;;;;;;;;32.75;28.75;;;;;4.03;100.00;102446.28;5029809;28;48548;-77
2023/03/04 06:45:08;;;;;;;;;36.25;34.00;;;;;4.02;100.00;102444.47;5033334;28;63694;-77
2023/03/04 06:47:34;;;;;;;;;38.25;28.50;;;;;3.99;100.00;102452.13;5030915;28;45986;-79
2023/03/04 06:49:59;;;;;;;;;39.75;30.25;;;;;4.00;100.00;102451.34;5031495;28;45418;-80
2023/03/04 06:52:24;;;;;;;;;44.75;34.75;;;;;4.00;100.00;102451.34;5031979;28;66844;-76
2023/03/04 06:54:50;;;;;;;;;37.25;25.75;;;;;3.97;100.00;102449.41;5053770;28;45571;-76
2023/03/04 06:57:15;;;;;;;;;43.00;35.25;;;;;3.98;100.00;102450.31;5030769;28;64769;-76
2023/03/04 06:59:40;;;;;;;;;33.25;26.50;;;;;3.98;100.00;102452.94;5031062;28;52814;-76
2023/03/04 07:02:10;;;;;;;;;41.75;33.50;;;;;3.99;100.00;102450.41;5060407;28;46512;-77
2023/03/04 07:04:35;;;;;;;;;44.50;35.75;;;;;4.05;100.00;102450.81;5046455;28;46080;-76
2023/03/04 07:07:00;;;;;;;;;35.75;30.00;;;;;4.07;100.00;102457.03;5050944;28;62362;-75
2023/03/04 07:09:26;;;;;;;;;36.75;30.25;;;;;4.11;100.00;102459.03;5054697;28;60221;-80
2023/03/04 07:11:51;;;;;;;;;31.00;25.75;;;;;4.17;100.00;102462.03;5057346;28;45568;-80
2023/03/04 07:14:17;;;;;;;;;37.00;30.25;;;;;4.25;100.00;102469.44;5050035;28;53095;-77
2023/03/04 07:16:42;;;;;;;;;34.50;27.75;;;;;4.27;100.00;102466.13;5030803;28;45573;-79
2023/03/04 07:19:07;;;;;;;;;41.75;30.00;;;;;4.32;100.00;102466.44;5052184;28;61802;-76
2023/03/04 07:21:33;;;;;;;;;28.75;28.75;;;;;4.36;100.00;102473.63;5032243;28;46196;-76
2023/03/04 07:23:58;;;;;;;;;41.75;29.75;;;;;4.40;100.00;102473.91;5051243;28;45513;-76
2023/03/04 07:26:23;;;;;;;;;35.50;26.75;;;;;4.41;100.00;102470.50;5030059;28;58205;-75
2023/03/04 07:28:51;;;;;;;;;37.50;32.75;;;;;4.43;100.00;102468.00;5030472;28;55517;-75
2023/03/04 07:31:26;;;;;;;;;45.50;36.25;;;;;4.46;100.00;102466.44;5032212;28;45807;-76
2023/03/04 07:34:01;;;;;;;;;31.00;28.25;;;;;4.55;100.00;102481.81;5032971;28;45454;-76
2023/03/04 07:36:27;;;;;;;;;35.75;28.75;;;;;4.56;100.00;102481.00;5021540;28;45867;-81
2023/03/04 07:38:55;;;;;;;;;39.00;26.75;;;;;4.57;100.00;102471.44;5045814;28;64121;-76
2023/03/04 07:41:23;;;;;;;;;30.50;25.00;;;;;4.63;100.00;102482.28;5049361;28;46189;-76
2023/03/04 07:43:49;;;;;;;;;32.50;26.75;;;;;4.64;100.00;102474.56;5026336;28;45541;-81
2023/03/04 07:46:15;;;;;;;;;41.50;29.50;;;;;4.66;100.00;102486.00;5033234;28;53734;-76
2023/03/04 07:48:40;;;;;;;;;48.25;30.75;;;;;4.68;100.00;102484.38;5034289;28;45474;-80
2023/03/04 07:51:11;;;;;;;;;43.25;39.50;;;;;4.71;100.00;102483.66;5052870;28;46312;-79
2023/03/04 07:53:39;;;;;;;;;48.00;39.50;;;;;4.71;100.00;102487.19;5030944;28;45406;-79
2023/03/04 07:56:05;;;;;;;;;46.25;32.25;;;;;4.71;100.00;102486.28;5034998;28;45561;-81
2023/03/04 07:58:31;;;;;;;;;40.75;30.50;;;;;4.74;100.00;102483.88;5060061;28;45871;-76
2023/03/04 08:00:56;;;;;;;;;38.00;29.75;;;;;4.81;100.00;102495.59;5046693;28;45725;-76
2023/03/04 08:03:22;;;;;;;;;41.25;29.75;;;;;4.88;100.00;102501.28;5047210;28;66372;-81
2023/03/04 08:05:47;;;;;;;;;42.25;34.25;;;;;4.97;100.00;102498.34;5029685;28;63009;-76
2023/03/04 08:08:12;;;;;;;;;38.25;31.25;;;;;5.07;100.00;102503.31;5029302;28;60803;-81
2023/03/04 08:10:38;;;;;;;;;43.25;31.50;;;;;5.16;100.00;102496.00;5046246;28;60559;-75
2023/03/04 08:13:05;;;;;;;;;37.75;31.75;;;;;5.21;100.00;102493.66;5045655;28;45656;-77
2023/03/04 08:15:31;;;;;;;;;45.75;36.25;;;;;5.29;100.00;102510.75;5031400;28;45503;-78
2023/03/04 08:17:57;;;;;;;;;30.00;26.50;;;;;5.36;100.00;102501.53;5050161;28;45653;-82
2023/03/04 08:20:22;;;;;;;;;37.75;26.75;;;;;5.47;100.00;102497.81;5011941;28;58431;-78
2023/03/04 08:22:47;;;;;;;;;40.00;31.50;;;;;5.58;100.00;102509.81;5029500;28;45535;-77
2023/03/04 08:25:13;;;;;;;;;38.00;31.50;;;;;5.63;100.00;102496.97;5047051;28;55128;-80
2023/03/04 08:27:38;;;;;;;;;40.50;34.25;;;;;5.69;100.00;102508.72;5047721;28;59356;-79
2023/03/04 08:30:04;;;;;;;;;42.50;34.50;;;;;5.75;100.00;102505.53;5030293;28;68154;-78
2023/03/04 08:32:30;;;;;;;;;45.00;36.25;;;;;5.85;100.00;102505.25;5026672;28;45861;-76
2023/03/04 08:34:55;;;;;;;;;38.75;29.75;;;;;5.95;100.00;102502.38;5033794;28;45346;-77
2023/03/04 08:37:21;;;;;;;;;40.75;28.75;;;;;6.09;100.00;102500.53;5043244;28;46177;-82
2023/03/04 08:39:46;;;;;;;;;42.25;35.00;;;;;6.23;100.00;102498.66;5026602;28;46485;-76
2023/03/04 08:42:12;;;;;;;;;41.75;36.75;;;;;6.37;100.00;102499.44;5047125;28;65215;-78
2023/03/04 08:44:37;;;;;;;;;42.50;32.75;;;;;6.46;100.00;102498.22;5055146;28;62703;-76
2023/03/04 08:47:03;;;;;;;;;38.25;31.75;;;;;6.57;100.00;102501.44;5027894;28;62931;-76
2023/03/04 08:49:28;;;;;;;;;35.25;30.75;;;;;6.64;100.00;102500.03;5047687;28;67020;-77
2023/03/04 08:51:53;;;;;;;;;34.25;26.00;;;;;6.68;100.00;102505.53;5027483;28;63863;-78
2023/03/04 08:54:19;;;;;;;;;36.75;29.50;;;;;6.72;100.00;102502.25;5008062;28;62136;-74
2023/03/04 08:56:44;;;;;;;;;30.00;26.00;;;;;6.79;100.00;102506.09;5047034;28;52881;-78
2023/03/04 08:59:10;;;;;;;;;43.25;29.75;;;;;6.78;100.00;102501.69;5047116;28;57902;-75
2023/03/04 09:01:35;;;;;;;;;37.00;28.50;;;;;6.83;100.00;102511.59;5046958;28;45619;-74
2023/03/04 09:04:00;;;;;;;;;36.75;26.75;;;;;6.91;100.00;102511.09;5046800;28;46695;-77
2023/03/04 09:06:26;;;;;;;;;37.50;29.50;;;;;6.94;100.00;102514.78;5053780;28;57461;-75
2023/03/04 09:08:51;;;;;;;;;37.50;29.75;;;;;6.98;100.00;102516.75;5052838;28;45453;-76
2023/03/04 09:11:16;;;;;;;;;38.75;29.50;;;;;7.00;100.00;102517.72;5039913;28;61079;-76
2023/03/04 09:13:42;;;;;;;;;42.00;34.75;;;;;7.03;100.00;102511.72;5028135;28;53069;-78
2023/03/04 09:16:11;;;;;;;;;33.75;29.25;;;;;7.04;100.00;102509.19;5022185;28;45574;-74
2023/03/04 09:18:38;;;;;;;;;34.75;30.25;;;;;7.10;100.00;102513.88;5034212;28;46722;-74
2023/03/04 09:21:03;;;;;;;;;35.00;29.00;;;;;7.13;100.00;102513.13;5049309;28;45482;-76
2023/03/04 09:23:29;;;;;;;;;34.50;26.75;;;;;7.14;100.00;102517.53;5032625;28;46361;-74
2023/03/04 09:25:54;;;;;;;;;31.50;22.00;;;;;7.14;100.00;102513.22;5037452;28;59882;-76
2023/03/04 09:28:19;;;;;;;;;40.50;25.25;;;;;7.18;100.00;102514.25;5036025;28;45657;-75
2023/03/04 09:30:45;;;;;;;;;37.25;25.25;;;;;7.22;100.00;102522.38;5052187;28;45473;-74
2023/03/04 09:33:10;;;;;;;;;29.25;23.50;;;;;7.25;100.00;102513.78;5039282;28;49691;-74
2023/03/04 09:35:36;;;;;;;;;25.00;22.50;;;;;7.27;100.00;102505.13;5018767;28;46108;-77
2023/03/04 09:38:01;;;;;;;;;32.25;22.50;;;;;7.35;100.00;102521.31;5052189;28;46462;-77
2023/03/04 09:40:41;;;;;;;;;30.75;25.75;;;;;7.36;100.00;102517.84;5035755;28;45846;-75
2023/03/04 09:43:11;;;;;;;;;29.00;23.00;;;;;7.39;100.00;102510.09;5032520;28;45536;-79
2023/03/04 09:45:43;;;;;;;;;42.75;28.25;;;;;7.43;100.00;102519.06;5053277;28;45599;-75
2023/03/04 09:48:09;;;;;;;;;28.50;24.00;;;;;7.48;100.00;102515.81;5034188;28;45679;-75
2023/03/04 09:50:41;;;;;;;;;25.25;20.25;;;;;7.52;100.00;102516.91;5034742;28;45520;-74
2023/03/04 09:53:13;;;;;;;;;16.75;15.25;;;;;7.58;100.00;102525.09;5021080;28;45478;-74
2023/03/04 09:55:42;;;;;;;;;23.75;19.00;;;;;7.61;100.00;102525.22;5036223;28;45876;-77
2023/03/04 09:58:16;;;;;;;;;25.00;16.00;;;;;7.65;100.00;102514.03;5037876;28;45575;-75
2023/03/04 10:00:45;;;;;;;;;26.00;20.75;;;;;7.72;100.00;102517.88;5054809;28;45482;-75
2023/03/04 10:03:15;;;;;;;;;27.75;23.75;;;;;7.72;100.00;102520.50;5035221;28;45667;-78
2023/03/04 10:05:52;;;;;;;;;35.25;24.50;;;;;7.76;100.00;102514.56;5016325;28;45624;-77
2023/03/04 10:08:33;;;;;;;;;30.50;22.00;;;;;7.80;100.00;102516.53;5036154;28;46392;-74
2023/03/04 10:10:59;;;;;;;;;22.75;15.50;;;;;7.81;99.94;102515.69;5034425;28;45526;-74
2023/03/04 10:13:33;;;;;;;;;27.75;22.00;;;;;7.87;100.00;102522.16;5037709;28;45729;-74
2023/03/04 10:16:00;;;;;;;;;25.00;16.00;;;;;7.90;100.00;102516.16;5034112;28;45603;-74
2023/03/04 10:18:53;;;;;;;;;19.00;11.00;;;;;7.95;99.92;102519.03;5035708;28;46132;-74
2023/03/04 10:21:24;;;;;;;;;19.25;18.75;;;;;7.96;99.61;102518.19;5001518;28;45634;-74
2023/03/04 10:23:52;;;;;;;;;14.25;8.25;;;;;8.02;99.75;102515.84;5033996;28;45613;-76
2023/03/04 10:26:20;;;;;;;;;14.00;9.00;;;;;8.04;99.78;102504.59;5029343;28;45580;-74
2023/03/04 10:28:45;;;;;;;;;15.00;13.25;;;;;8.10;99.91;102515.41;5024756;28;45461;-76
2023/03/04 10:31:16;;;;;;;;;16.50;11.00;;;;;8.14;99.75;102505.91;5020118;28;45604;-74
2023/03/04 10:33:41;;;;;;;;;19.25;14.00;;;;;8.18;99.63;102491.19;5047044;28;45485;-74
2023/03/04 10:36:28;;;;;;;;;13.25;12.00;;;;;8.22;99.46;102494.03;5023462;28;45541;-74
2023/03/04 10:39:20;;;;;;;;;15.50;15.50;;;;;8.25;99.82;102493.25;5047030;28;46795;-74
2023/03/04 10:41:54;;;;;;;;;15.50;11.50;;;;;8.30;99.45;102489.13;5041422;28;45440;-74
2023/03/04 10:44:19;;;;;;;;;16.75;8.25;;;;;8.30;99.20;102494.38;5047570;28;45826;-74
2023/03/04 10:46:47;;;;;;;;;7.00;7.00;;;;;8.34;99.00;102499.84;5044777;28;48514;-74
2023/03/04 10:49:15;;;;;;;;;12.50;11.00;;;;;8.36;98.81;102490.34;5014766;28;47676;-74
2023/03/04 10:51:44;;;;;;;;;11.25;11.25;;;;;8.38;98.71;102493.94;5049469;28;45515;-74
2023/03/04 10:54:22;;;;;;;;;14.00;11.50;;;;;8.43;98.66;102496.81;5034025;28;45496;-73
2023/03/04 10:57:02;;;;;;;;;10.25;9.00;;;;;8.48;99.04;102486.50;5029034;28;45465;-75
2023/03/04 10:59:31;;;;;;;;;17.25;15.00;;;;;8.52;98.96;102494.59;5022768;28;46316;-77
2023/03/04 11:01:58;;;;;;;;;18.25;12.50;;;;;8.56;98.94;102471.94;5048972;28;45491;-74
2023/03/04 11:04:24;;;;;;;;;9.50;7.50;;;;;8.61;98.97;102476.56;5049476;28;45509;-76
2023/03/04 11:06:51;;;;;;;;;8.50;8.50;;;;;8.68;98.67;102483.00;5030991;28;45561;-74